Time;durP1;ratioP1;P1;durP2;ratioP2;P2;SDS_P1;SDS_P2;PMS_P1;PMS_P2;Temp;Humidity;BMP_temperature;BMP_pressure;BME280_temperature;BME280_humidity;BME280_pressure;Samples;Min_cycle;Max_cycle;Signal;HPM_P1;HPM_P2
2021/12/23 00:01:09;;;;;;;29.83;17.50;;;-0.20;99.90;;;;;;5075258;28;20495;-60
2021/12/23 00:03:35;;;;;;;29.30;18.58;;;-0.30;99.90;;;;;;5091574;28;20040;-59
2021/12/23 00:06:00;;;;;;;33.35;18.90;;;-0.30;99.90;;;;;;5092780;28;20024;-59
2021/12/23 00:08:26;;;;;;;33.42;19.05;;;-0.20;99.90;;;;;;5092462;28;20020;-59
2021/12/23 00:10:52;;;;;;;34.03;18.20;;;-0.30;99.90;;;;;;5092737;28;20024;-59
2021/12/23 00:13:18;;;;;;;32.05;17.95;;;-0.20;99.90;;;;;;5093086;28;20099;-59
2021/12/23 00:16:04;;;;;;;34.45;19.80;;;-0.20;99.90;;;;;;5093150;28;20435;-59
2021/12/23 00:18:44;;;;;;;30.95;18.80;;;-0.20;99.90;;;;;;5093029;28;20036;-59
2021/12/23 00:23:57;;;;;;;33.75;18.38;;;-0.20;99.90;;;;;;5092907;28;20091;-59
2021/12/23 00:26:23;;;;;;;32.22;18.65;;;-0.20;99.90;;;;;;5092827;28;20107;-59
2021/12/23 00:28:48;;;;;;;28.58;18.05;;;-0.20;99.90;;;;;;5093028;28;20099;-59
2021/12/23 00:31:15;;;;;;;31.65;17.60;;;-0.20;99.90;;;;;;5074628;28;20032;-59
2021/12/23 00:33:42;;;;;;;29.05;18.08;;;-0.20;99.90;;;;;;5092742;28;20452;-59
2021/12/23 00:36:09;;;;;;;25.02;15.63;;;-0.20;99.90;;;;;;5074530;28;20016;-59
2021/12/23 00:38:40;;;;;;;29.13;17.25;;;-0.10;99.90;;;;;;5074486;28;20466;-59
2021/12/23 00:41:08;;;;;;;28.85;17.45;;;-0.10;99.90;;;;;;5092778;28;20022;-59
2021/12/23 00:43:34;;;;;;;28.33;17.60;;;0.00;99.90;;;;;;5092428;28;20044;-59
2021/12/23 00:46:00;;;;;;;30.13;16.83;;;0.00;99.90;;;;;;5092622;28;20491;-60
2021/12/23 00:48:26;;;;;;;31.88;18.13;;;0.00;99.90;;;;;;5092756;28;20030;-60
2021/12/23 00:50:51;;;;;;;31.15;17.98;;;0.00;99.90;;;;;;5092361;28;20107;-60
2021/12/23 00:53:19;;;;;;;31.65;18.63;;;0.00;99.80;;;;;;5092365;28;20098;-59
2021/12/23 00:55:51;;;;;;;28.92;18.42;;;0.00;99.70;;;;;;5074795;28;20032;-60
2021/12/23 00:58:18;;;;;;;30.98;17.70;;;-0.10;99.80;;;;;;5092452;28;20031;-59
2021/12/23 01:00:44;;;;;;;32.58;18.70;;;-0.10;99.80;;;;;;5092384;28;20062;-59
2021/12/23 01:03:10;;;;;;;29.77;17.92;;;-0.10;99.90;;;;;;5092227;28;20051;-59
2021/12/23 01:05:36;;;;;;;28.58;17.60;;;0.00;99.90;;;;;;5073267;28;20031;-59
2021/12/23 01:08:01;;;;;;;31.75;19.17;;;0.00;99.90;;;;;;5092258;28;20024;-59
2021/12/23 01:10:27;;;;;;;30.10;18.15;;;-0.10;99.90;;;;;;5092122;28;20115;-59
2021/12/23 01:13:02;;;;;;;28.98;17.98;;;0.00;99.90;;;;;;5079626;28;20016;-60
2021/12/23 01:18:11;;;;;;;29.67;19.08;;;-0.10;99.90;;;;;;5092045;28;20103;-59
2021/12/23 01:20:51;;;;;;;35.97;19.05;;;-0.10;99.90;;;;;;5091769;28;20071;-59
2021/12/23 01:23:17;;;;;;;29.38;18.10;;;-0.10;99.90;;;;;;5091733;28;20024;-59
2021/12/23 01:25:43;;;;;;;33.35;19.33;;;-0.10;99.90;;;;;;5091693;28;20039;-60
2021/12/23 01:28:09;;;;;;;31.00;19.40;;;-0.10;99.90;;;;;;5091911;28;20024;-59
2021/12/23 01:30:37;;;;;;;32.67;19.42;;;-0.10;99.90;;;;;;5091927;28;20052;-59
2021/12/23 01:33:04;;;;;;;32.50;19.75;;;-0.20;99.90;;;;;;5073562;28;20031;-59
2021/12/23 01:35:30;;;;;;;30.08;18.85;;;-0.20;99.90;;;;;;5091734;28;20507;-59
2021/12/23 01:37:55;;;;;;;32.40;19.20;;;-0.20;99.90;;;;;;5091841;28;20024;-60
2021/12/23 01:40:24;;;;;;;33.58;20.48;;;-0.20;99.90;;;;;;5091702;28;20393;-60
2021/12/23 01:42:50;;;;;;;31.90;19.38;;;-0.20;99.90;;;;;;5091727;28;20028;-59
2021/12/23 01:45:19;;;;;;;33.15;18.25;;;-0.20;99.90;;;;;;5091472;28;20063;-60
2021/12/23 01:47:45;;;;;;;32.25;17.88;;;-0.10;99.90;;;;;;5091692;28;20059;-60
2021/12/23 01:50:14;;;;;;;32.03;17.95;;;-0.10;99.90;;;;;;5058759;28;20025;-59
2021/12/23 01:52:39;;;;;;;31.33;19.00;;;0.00;99.90;;;;;;5071337;28;20045;-59
2021/12/23 01:55:08;;;;;;;36.33;21.38;;;0.00;99.90;;;;;;5085732;28;20024;-59
2021/12/23 01:57:33;;;;;;;31.23;18.67;;;0.00;99.90;;;;;;5091371;28;20502;-60
2021/12/23 02:00:02;;;;;;;39.45;21.10;;;0.00;99.80;;;;;;5091568;28;20035;-59
2021/12/23 02:02:27;;;;;;;36.08;21.05;;;-0.10;99.90;;;;;;5073363;28;20130;-59
2021/12/23 02:04:53;;;;;;;41.88;20.90;;;-0.10;99.90;;;;;;5091680;28;20024;-59
2021/12/23 02:07:19;;;;;;;35.42;20.15;;;-0.20;99.90;;;;;;5091250;28;20397;-59
2021/12/23 02:09:45;;;;;;;35.40;20.77;;;-0.10;99.90;;;;;;5091335;28;20039;-59
2021/12/23 02:12:11;;;;;;;29.60;18.42;;;-0.20;99.90;;;;;;5091353;28;20020;-59
2021/12/23 02:14:37;;;;;;;33.78;20.42;;;-0.20;99.90;;;;;;5091480;28;20047;-59
2021/12/23 02:17:03;;;;;;;38.60;20.88;;;-0.10;99.90;;;;;;5076356;28;20476;-60
2021/12/23 02:19:28;;;;;;;33.58;20.55;;;-0.20;99.90;;;;;;5095647;28;20036;-59
2021/12/23 02:21:54;;;;;;;34.28;19.23;;;-0.20;99.80;;;;;;5095205;28;20055;-59
2021/12/23 02:24:20;;;;;;;32.45;19.10;;;-0.20;99.70;;;;;;5094732;28;20032;-59
2021/12/23 02:26:45;;;;;;;30.27;19.27;;;-0.20;99.70;;;;;;5094824;28;20024;-60
2021/12/23 02:29:11;;;;;;;35.53;21.00;;;-0.20;99.70;;;;;;5095058;28;20093;-59
2021/12/23 02:31:37;;;;;;;32.38;19.17;;;-0.30;99.60;;;;;;5095077;28;20035;-59
2021/12/23 02:34:03;;;;;;;35.88;20.13;;;-0.20;99.60;;;;;;5094993;28;20490;-59
2021/12/23 02:36:32;;;;;;;31.55;19.48;;;-0.30;99.50;;;;;;5094880;28;20043;-60
2021/12/23 02:38:58;;;;;;;34.13;20.17;;;-0.30;99.50;;;;;;5094917;28;20488;-59
2021/12/23 02:41:24;;;;;;;34.42;19.67;;;-0.30;99.60;;;;;;5094648;28;20032;-59
2021/12/23 02:43:50;;;;;;;36.42;21.58;;;-0.30;99.60;;;;;;5076820;28;20020;-59
2021/12/23 02:46:19;;;;;;;33.63;19.65;;;-0.30;99.60;;;;;;5076491;28;20035;-59
2021/12/23 02:48:46;;;;;;;37.38;20.20;;;-0.40;99.60;;;;;;5094813;28;20098;-59
2021/12/23 02:51:15;;;;;;;33.38;19.80;;;-0.40;99.60;;;;;;5094577;28;20028;-59
2021/12/23 02:53:42;;;;;;;30.98;18.48;;;-0.40;99.60;;;;;;5094468;28;20073;-59
2021/12/23 02:56:12;;;;;;;30.20;19.63;;;-0.40;99.60;;;;;;5094351;28;20024;-60
2021/12/23 02:58:37;;;;;;;36.00;20.88;;;-0.40;99.50;;;;;;5094511;28;20035;-60
2021/12/23 03:01:07;;;;;;;34.80;20.15;;;-0.50;99.50;;;;;;5094462;28;20021;-59
2021/12/23 03:03:33;;;;;;;34.22;20.13;;;-0.40;99.50;;;;;;5094156;28;20020;-59
2021/12/23 03:05:59;;;;;;;38.47;20.45;;;-0.50;99.50;;;;;;5094481;28;20039;-60
2021/12/23 03:08:36;;;;;;;34.95;20.38;;;-0.50;99.50;;;;;;5075894;28;20488;-59
2021/12/23 03:11:04;;;;;;;35.42;19.67;;;-0.50;99.60;;;;;;5094206;28;20553;-59
2021/12/23 03:13:31;;;;;;;36.38;20.92;;;-0.60;99.60;;;;;;5093692;28;20217;-60
2021/12/23 03:15:57;;;;;;;32.53;20.63;;;-0.60;99.70;;;;;;5094200;28;20028;-59
2021/12/23 03:18:23;;;;;;;37.28;20.13;;;-0.60;99.70;;;;;;5094057;28;20103;-59
2021/12/23 03:20:48;;;;;;;34.95;20.25;;;-0.60;99.70;;;;;;5093906;28;20162;-59
2021/12/23 03:23:14;;;;;;;32.75;19.52;;;-0.60;99.60;;;;;;5093872;28;20059;-59
2021/12/23 03:25:39;;;;;;;35.70;20.92;;;-0.70;99.70;;;;;;5088945;28;20472;-60
2021/12/23 03:28:05;;;;;;;30.90;19.17;;;-0.70;99.80;;;;;;5092893;28;20030;-59
2021/12/23 03:30:30;;;;;;;37.85;20.40;;;-0.70;99.90;;;;;;5093791;28;20020;-59
2021/12/23 03:32:56;;;;;;;35.65;20.20;;;-0.70;99.90;;;;;;5093781;28;20020;-59
2021/12/23 03:35:22;;;;;;;37.63;21.15;;;-0.70;99.90;;;;;;5093383;28;20032;-60
2021/12/23 03:37:47;;;;;;;34.88;20.65;;;-0.80;99.80;;;;;;5093745;28;20043;-59
2021/12/23 03:40:13;;;;;;;38.63;20.65;;;-0.80;99.90;;;;;;5093776;28;20059;-59
2021/12/23 03:42:39;;;;;;;35.53;20.38;;;-0.80;99.90;;;;;;5075249;28;20059;-60
2021/12/23 03:45:07;;;;;;;34.47;21.15;;;-0.80;99.80;;;;;;5093401;28;20032;-60
2021/12/23 03:47:33;;;;;;;34.25;20.70;;;-0.80;99.80;;;;;;5093405;28;20020;-59
2021/12/23 03:49:59;;;;;;;34.65;20.02;;;-0.80;99.80;;;;;;5093573;28;20784;-59
2021/12/23 03:52:24;;;;;;;42.53;21.98;;;-0.80;99.80;;;;;;5093572;28;20112;-59
2021/12/23 03:54:50;;;;;;;34.72;20.15;;;-0.90;99.80;;;;;;5093639;28;20081;-59
2021/12/23 03:57:15;;;;;;;37.05;20.60;;;-0.80;99.80;;;;;;5093313;28;20101;-59
2021/12/23 03:59:41;;;;;;;39.22;21.25;;;-0.80;99.90;;;;;;5093611;28;20426;-59
2021/12/23 04:02:07;;;;;;;36.70;21.02;;;-0.80;99.80;;;;;;5093474;28;20464;-59
2021/12/23 04:04:32;;;;;;;40.20;23.27;;;-0.80;99.80;;;;;;5092788;28;20028;-60
2021/12/23 04:06:58;;;;;;;38.60;20.88;;;-0.80;99.80;;;;;;5074942;28;20019;-59
2021/12/23 04:09:23;;;;;;;35.33;20.83;;;-0.80;99.80;;;;;;5093141;28;20024;-59
2021/12/23 04:11:49;;;;;;;40.25;21.77;;;-0.70;99.80;;;;;;5075212;28;20031;-59
2021/12/23 04:14:14;;;;;;;40.80;21.73;;;-0.70;99.90;;;;;;5092810;28;20044;-59
2021/12/23 04:16:40;;;;;;;40.17;22.08;;;-0.70;99.90;;;;;;5093150;28;20032;-59
2021/12/23 04:19:08;;;;;;;38.22;20.95;;;-0.70;99.80;;;;;;5093076;28;20036;-59
2021/12/23 04:21:34;;;;;;;40.63;22.08;;;-0.70;99.70;;;;;;5092998;28;20078;-59
2021/12/23 04:24:00;;;;;;;40.50;21.95;;;-0.70;99.70;;;;;;5092971;28;20114;-59
2021/12/23 04:26:26;;;;;;;38.75;21.60;;;-0.70;99.80;;;;;;5092881;28;20024;-59
2021/12/23 04:28:52;;;;;;;40.65;20.52;;;-0.70;99.80;;;;;;5074702;28;20412;-59
2021/12/23 04:31:20;;;;;;;36.67;22.00;;;-0.70;99.80;;;;;;5093036;28;20055;-59
2021/12/23 04:33:49;;;;;;;37.85;21.25;;;-0.70;99.80;;;;;;5092702;28;20028;-59
2021/12/23 04:36:16;;;;;;;41.90;22.38;;;-0.70;99.90;;;;;;5092779;28;20024;-59
2021/12/23 04:38:43;;;;;;;46.33;22.70;;;-0.70;99.90;;;;;;5092141;28;20020;-59
2021/12/23 04:41:10;;;;;;;40.45;22.33;;;-0.70;99.90;;;;;;5092355;28;20020;-59
2021/12/23 04:43:36;;;;;;;40.13;22.13;;;-0.70;99.90;;;;;;5092443;28;20026;-59
2021/12/23 04:46:02;;;;;;;45.00;22.85;;;-0.70;99.90;;;;;;5092913;28;20112;-59
2021/12/23 04:48:28;;;;;;;40.92;23.23;;;-0.60;99.90;;;;;;5092478;28;20031;-59
2021/12/23 04:50:54;;;;;;;39.80;22.75;;;-0.60;99.90;;;;;;5092718;28;20035;-59
2021/12/23 04:53:20;;;;;;;39.70;22.63;;;-0.60;99.90;;;;;;5092441;28;20032;-59
2021/12/23 04:55:45;;;;;;;43.65;21.58;;;-0.60;99.90;;;;;;5092471;28;20020;-59
2021/12/23 04:58:11;;;;;;;39.50;22.88;;;-0.60;99.90;;;;;;5092188;28;20020;-59
2021/12/23 05:00:37;;;;;;;37.08;21.80;;;-0.60;99.90;;;;;;5092261;28;20046;-59
2021/12/23 05:03:02;;;;;;;41.97;23.33;;;-0.60;99.90;;;;;;5092168;28;20125;-59
2021/12/23 05:05:28;;;;;;;41.15;22.77;;;-0.60;99.90;;;;;;5092101;28;20077;-59
2021/12/23 05:07:54;;;;;;;37.97;22.10;;;-0.60;99.90;;;;;;5092225;28;20535;-59
2021/12/23 05:10:20;;;;;;;37.72;22.08;;;-0.60;99.90;;;;;;5092317;28;20463;-59
2021/12/23 05:12:47;;;;;;;39.70;23.48;;;-0.50;99.90;;;;;;5092277;28;20491;-59
2021/12/23 05:15:15;;;;;;;41.08;24.40;;;-0.60;99.90;;;;;;5091895;28;20059;-59
2021/12/23 05:17:41;;;;;;;40.15;23.65;;;-0.60;99.90;;;;;;5092007;28;20116;-59
2021/12/23 05:20:09;;;;;;;43.80;23.30;;;-0.60;99.90;;;;;;5091996;28;20075;-59
2021/12/23 05:22:34;;;;;;;40.75;22.75;;;-0.60;99.90;;;;;;5092424;28;20032;-59
2021/12/23 05:25:01;;;;;;;41.33;23.20;;;-0.60;99.90;;;;;;5091964;28;20533;-59
2021/12/23 05:27:26;;;;;;;38.65;22.27;;;-0.60;99.90;;;;;;5091973;28;20020;-59
2021/12/23 05:29:52;;;;;;;39.42;21.73;;;-0.60;99.90;;;;;;5091828;28;20020;-59
2021/12/23 05:32:18;;;;;;;37.22;22.23;;;-0.60;99.90;;;;;;5091856;28;20039;-59
2021/12/23 05:34:44;;;;;;;42.53;22.10;;;-0.60;99.90;;;;;;5073863;28;20036;-59
2021/12/23 05:37:09;;;;;;;37.10;22.58;;;-0.50;99.90;;;;;;5091921;28;20115;-59
2021/12/23 05:39:35;;;;;;;38.65;21.38;;;-0.50;99.90;;;;;;5091897;28;20024;-59
2021/12/23 05:42:01;;;;;;;41.75;23.58;;;-0.50;99.90;;;;;;5092161;28;20103;-60
2021/12/23 05:44:26;;;;;;;36.30;21.45;;;-0.50;99.90;;;;;;5091334;28;20118;-60
2021/12/23 05:46:52;;;;;;;37.00;22.42;;;-0.50;99.90;;;;;;5073591;28;20036;-59
2021/12/23 05:49:17;;;;;;;59.40;24.52;;;-0.50;99.90;;;;;;5091716;28;20020;-60
2021/12/23 05:51:43;;;;;;;40.70;21.48;;;-0.60;99.90;;;;;;5094693;28;20486;-59
2021/12/23 05:54:08;;;;;;;43.42;22.45;;;-0.60;99.90;;;;;;5095842;28;20064;-59
2021/12/23 05:56:34;;;;;;;39.20;22.85;;;-0.60;99.90;;;;;;5095818;28;20036;-59
2021/12/23 05:59:00;;;;;;;38.00;23.20;;;-0.60;99.90;;;;;;5095736;28;20070;-59
2021/12/23 06:01:25;;;;;;;36.00;21.98;;;-0.70;99.90;;;;;;5095546;28;20032;-59
2021/12/23 06:03:51;;;;;;;42.38;23.52;;;-0.70;99.90;;;;;;5077714;28;20024;-59
2021/12/23 06:06:17;;;;;;;40.92;23.65;;;-0.70;99.90;;;;;;5095595;28;20028;-60
2021/12/23 06:08:43;;;;;;;40.35;22.88;;;-0.70;99.90;;;;;;5094191;28;20043;-59
2021/12/23 06:11:08;;;;;;;48.08;25.00;;;-0.70;99.90;;;;;;5077799;28;20021;-59
2021/12/23 06:13:35;;;;;;;44.60;25.55;;;-0.80;99.90;;;;;;5095364;28;20489;-59
2021/12/23 06:16:00;;;;;;;45.55;24.27;;;-0.80;99.90;;;;;;5095408;28;20034;-59
2021/12/23 06:18:26;;;;;;;42.53;24.08;;;-0.80;99.90;;;;;;5077301;28;20114;-59
2021/12/23 06:20:51;;;;;;;44.95;23.85;;;-0.80;99.90;;;;;;5077143;28;20047;-59
2021/12/23 06:23:17;;;;;;;45.35;24.15;;;-0.80;99.90;;;;;;5095380;28;20376;-59
2021/12/23 06:25:42;;;;;;;48.47;25.23;;;-0.80;99.90;;;;;;5095265;28;20106;-59
2021/12/23 06:28:08;;;;;;;45.67;25.90;;;-0.80;99.90;;;;;;5076976;28;20028;-59
2021/12/23 06:30:34;;;;;;;46.47;24.20;;;-0.80;99.90;;;;;;5074993;28;20073;-59
2021/12/23 06:33:00;;;;;;;43.72;24.63;;;-0.80;99.90;;;;;;5058084;28;20066;-59
2021/12/23 06:35:28;;;;;;;41.75;23.65;;;-0.80;99.90;;;;;;5076873;28;20028;-59
2021/12/23 06:37:54;;;;;;;40.70;23.02;;;-0.70;99.90;;;;;;5075209;28;20416;-60
2021/12/23 06:40:21;;;;;;;47.70;26.10;;;-0.70;99.90;;;;;;5073481;28;20059;-59
2021/12/23 06:42:46;;;;;;;44.70;24.60;;;-0.70;99.90;;;;;;5075208;28;20025;-59
2021/12/23 06:45:13;;;;;;;44.13;24.08;;;-0.70;99.90;;;;;;5086262;28;20023;-59
2021/12/23 06:47:40;;;;;;;43.83;24.80;;;-0.60;99.90;;;;;;5088128;28;20047;-59
2021/12/23 06:50:07;;;;;;;45.53;25.25;;;-0.60;99.90;;;;;;5072114;28;20028;-59
2021/12/23 06:52:33;;;;;;;44.42;24.77;;;-0.60;99.90;;;;;;5092296;28;20085;-60
2021/12/23 06:54:59;;;;;;;46.13;25.20;;;-0.60;99.90;;;;;;5089708;28;20107;-59
2021/12/23 06:57:26;;;;;;;44.95;26.15;;;-0.60;99.90;;;;;;5072493;28;20119;-59
2021/12/23 06:59:52;;;;;;;42.75;25.05;;;-0.60;99.90;;;;;;5072928;28;20497;-60
2021/12/23 07:02:18;;;;;;;43.42;25.70;;;-0.60;99.90;;;;;;5062135;28;20123;-59
2021/12/23 07:04:45;;;;;;;44.45;24.60;;;-0.50;99.90;;;;;;5075612;28;20166;-59
2021/12/23 07:07:12;;;;;;;42.28;23.50;;;-0.50;99.90;;;;;;5080898;28;20046;-59
2021/12/23 07:09:40;;;;;;;44.80;25.45;;;-0.50;99.90;;;;;;5076776;28;20385;-60
2021/12/23 07:12:08;;;;;;;44.35;24.88;;;-0.40;99.90;;;;;;5074176;28;20021;-59
2021/12/23 07:14:34;;;;;;;43.47;24.75;;;-0.40;99.90;;;;;;5055523;28;20023;-60
2021/12/23 07:17:00;;;;;;;45.28;25.23;;;-0.30;99.90;;;;;;5081584;28;20111;-59
2021/12/23 07:19:26;;;;;;;41.45;23.48;;;-0.30;99.90;;;;;;5077453;28;20025;-59
2021/12/23 07:21:51;;;;;;;44.50;24.00;;;-0.30;99.90;;;;;;5078228;28;20500;-60
2021/12/23 07:24:17;;;;;;;45.78;25.20;;;-0.30;99.90;;;;;;5080897;28;20016;-60
2021/12/23 07:26:44;;;;;;;43.22;23.13;;;-0.30;99.90;;;;;;5083525;28;20028;-59
2021/12/23 07:29:09;;;;;;;48.67;25.40;;;-0.30;99.90;;;;;;5084560;28;20024;-59
2021/12/23 07:31:35;;;;;;;46.45;26.30;;;-0.30;99.90;;;;;;5077986;28;20032;-59
2021/12/23 07:34:00;;;;;;;43.33;23.30;;;-0.30;99.90;;;;;;5081268;28;20020;-60
2021/12/23 07:36:29;;;;;;;43.95;22.63;;;-0.30;99.90;;;;;;5079809;28;20032;-60
2021/12/23 07:38:56;;;;;;;41.38;22.38;;;-0.30;99.90;;;;;;5084273;28;20024;-59
2021/12/23 07:41:23;;;;;;;40.83;24.02;;;-0.30;99.90;;;;;;5078493;28;20024;-60
2021/12/23 07:43:58;;;;;;;42.30;23.38;;;-0.30;99.90;;;;;;5073484;28;20013;-59
2021/12/23 07:46:26;;;;;;;41.10;24.10;;;-0.20;99.90;;;;;;5075575;28;20017;-59
2021/12/23 07:48:52;;;;;;;44.35;24.67;;;-0.20;99.90;;;;;;5078421;28;20028;-60
2021/12/23 07:51:18;;;;;;;46.67;24.25;;;-0.20;99.90;;;;;;5067466;28;20021;-59
2021/12/23 07:53:43;;;;;;;44.17;23.98;;;-0.10;99.90;;;;;;5081188;28;20425;-60
2021/12/23 07:56:09;;;;;;;43.50;24.77;;;-0.10;99.90;;;;;;5051708;28;20158;-59
2021/12/23 07:58:34;;;;;;;45.20;24.08;;;-0.10;99.90;;;;;;5079182;28;20062;-59
2021/12/23 08:01:00;;;;;;;47.58;25.92;;;-0.10;99.90;;;;;;5078464;28;20021;-59
2021/12/23 08:03:25;;;;;;;41.45;22.73;;;-0.10;99.90;;;;;;5066194;28;20798;-59
2021/12/23 08:05:54;;;;;;;45.08;25.17;;;-0.10;99.90;;;;;;5081903;28;20380;-59
2021/12/23 08:08:20;;;;;;;44.80;25.42;;;-0.10;99.90;;;;;;5081279;28;20020;-58
2021/12/23 08:10:46;;;;;;;48.17;24.70;;;-0.10;99.90;;;;;;5076564;28;20016;-60
2021/12/23 08:13:11;;;;;;;46.25;24.48;;;-0.10;99.90;;;;;;5065315;28;20020;-59
2021/12/23 08:15:37;;;;;;;46.67;24.73;;;-0.10;99.90;;;;;;5081803;28;20035;-60
2021/12/23 08:18:03;;;;;;;50.60;26.08;;;-0.10;99.90;;;;;;5083213;28;20447;-59
2021/12/23 08:20:29;;;;;;;44.85;24.42;;;-0.10;99.90;;;;;;5084156;28;20032;-59
2021/12/23 08:22:55;;;;;;;51.40;25.63;;;-0.10;99.90;;;;;;5084651;28;20030;-59
2021/12/23 08:25:22;;;;;;;42.42;24.95;;;-0.10;99.90;;;;;;5088382;28;20028;-59
2021/12/23 08:27:48;;;;;;;45.92;25.45;;;0.00;99.90;;;;;;5081607;28;20485;-59
2021/12/23 08:30:17;;;;;;;48.88;25.25;;;0.00;99.90;;;;;;5086634;28;20499;-59
2021/12/23 08:32:43;;;;;;;45.70;26.10;;;0.00;99.90;;;;;;5074192;28;20441;-59
2021/12/23 08:35:09;;;;;;;49.67;26.42;;;0.00;99.90;;;;;;5066510;28;20110;-59
2021/12/23 08:37:36;;;;;;;47.85;24.95;;;0.00;99.90;;;;;;5090791;28;20392;-59
2021/12/23 08:40:03;;;;;;;46.75;25.48;;;-0.10;99.90;;;;;;5085279;28;20024;-59
2021/12/23 08:42:29;;;;;;;53.75;26.42;;;-0.10;99.90;;;;;;5089113;28;20035;-59
2021/12/23 08:44:55;;;;;;;47.05;24.75;;;0.00;99.90;;;;;;5089206;28;20031;-60
2021/12/23 08:47:20;;;;;;;51.80;25.95;;;-0.10;99.90;;;;;;5089905;28;20032;-59
2021/12/23 08:49:46;;;;;;;46.83;24.15;;;0.00;99.90;;;;;;5086710;28;20023;-59
2021/12/23 08:52:13;;;;;;;46.10;25.38;;;0.00;99.90;;;;;;5071589;28;20031;-59
2021/12/23 08:54:41;;;;;;;47.45;24.60;;;-0.10;99.90;;;;;;5088834;28;20035;-59
2021/12/23 08:57:07;;;;;;;45.60;25.33;;;-0.10;99.90;;;;;;5071387;28;20020;-59
2021/12/23 08:59:32;;;;;;;49.15;26.98;;;-0.10;99.90;;;;;;5088829;28;20105;-59
2021/12/23 09:01:58;;;;;;;48.22;25.98;;;-0.10;99.90;;;;;;5089074;28;20024;-59
2021/12/23 09:04:24;;;;;;;45.63;24.40;;;0.00;99.90;;;;;;5078421;28;20033;-59
2021/12/23 09:06:50;;;;;;;43.95;27.10;;;0.00;99.90;;;;;;5072326;28;20027;-59
2021/12/23 09:09:15;;;;;;;49.85;26.60;;;0.00;99.90;;;;;;5089700;28;20024;-59
2021/12/23 09:11:41;;;;;;;46.38;27.20;;;0.00;99.90;;;;;;5090287;28;20511;-59
2021/12/23 09:14:08;;;;;;;54.08;26.58;;;0.00;99.90;;;;;;5072013;28;20055;-59
2021/12/23 09:16:34;;;;;;;45.13;26.40;;;0.10;99.90;;;;;;5073298;28;20027;-59
2021/12/23 09:19:00;;;;;;;48.75;26.73;;;0.10;99.90;;;;;;5088456;28;20499;-59
2021/12/23 09:21:25;;;;;;;53.58;27.15;;;0.10;99.90;;;;;;5055120;28;20143;-59
2021/12/23 09:23:51;;;;;;;51.65;27.50;;;0.10;99.90;;;;;;5086935;28;20032;-60
2021/12/23 09:26:16;;;;;;;53.47;26.90;;;0.20;99.90;;;;;;5088052;28;20024;-60
2021/12/23 09:29:06;;;;;;;53.63;27.58;;;0.20;99.90;;;;;;5092011;28;20111;-59
2021/12/23 09:34:16;;;;;;;50.17;27.75;;;0.30;99.90;;;;;;5090618;28;20038;-59
2021/12/23 09:36:41;;;;;;;54.67;26.45;;;0.30;99.90;;;;;;5086534;28;20023;-59
2021/12/23 09:39:09;;;;;;;52.05;27.65;;;0.30;99.90;;;;;;5071756;28;20078;-59
2021/12/23 09:41:38;;;;;;;54.58;27.63;;;0.30;99.90;;;;;;5071589;28;20098;-59
2021/12/23 09:44:05;;;;;;;53.35;28.33;;;0.30;99.90;;;;;;5082507;28;20036;-59
2021/12/23 09:46:34;;;;;;;50.47;27.13;;;0.40;99.90;;;;;;5091658;28;20077;-60
2021/12/23 09:49:00;;;;;;;55.47;28.52;;;0.40;99.90;;;;;;5088691;28;20067;-60
2021/12/23 09:51:29;;;;;;;53.72;28.13;;;0.50;99.90;;;;;;5067313;28;20474;-59
2021/12/23 09:53:57;;;;;;;58.10;29.08;;;0.50;99.90;;;;;;5071495;28;20032;-59
2021/12/23 09:56:24;;;;;;;52.45;28.40;;;0.50;99.90;;;;;;5071498;28;20029;-59
2021/12/23 09:58:50;;;;;;;54.97;29.30;;;0.60;99.90;;;;;;5083383;28;20085;-59
2021/12/23 10:01:17;;;;;;;55.45;29.38;;;0.60;99.90;;;;;;5091129;28;20060;-59
2021/12/23 10:03:43;;;;;;;53.35;29.00;;;0.60;99.90;;;;;;5072127;28;20057;-59
2021/12/23 10:06:09;;;;;;;53.28;26.50;;;0.70;99.90;;;;;;5072731;28;20036;-60
2021/12/23 10:08:34;;;;;;;52.92;29.60;;;0.70;99.90;;;;;;5087391;28;20099;-60
2021/12/23 10:12:02;;;;;;;56.35;27.88;;;0.80;99.90;;;;;;5087326;28;20141;-60
2021/12/23 10:38:48;;;;;;;52.55;27.08;;;1.40;99.90;;;;;;5087867;28;20043;-60
2021/12/23 10:41:22;;;;;;;53.40;26.92;;;1.60;99.90;;;;;;5094619;28;20028;-60
2021/12/23 10:44:02;;;;;;;50.83;25.13;;;1.70;99.90;;;;;;5094977;28;20464;-59
2021/12/23 10:46:32;;;;;;;47.15;25.95;;;1.80;99.90;;;;;;5094540;28;20514;-59
2021/12/23 10:52:00;;;;;;;48.53;25.88;;;1.80;99.90;;;;;;5074654;28;20044;-59
2021/12/23 11:00:16;;;;;;;46.35;25.60;;;2.00;99.60;;;;;;5074938;28;20040;-60
2021/12/23 11:03:38;;;;;;;50.97;26.43;;;2.00;99.60;;;;;;5088018;28;20024;-59
2021/12/23 11:08:56;;;;;;;45.28;26.00;;;2.00;99.80;;;;;;5094405;28;20403;-60
2021/12/23 11:12:12;;;;;;;46.95;24.40;;;2.00;99.70;;;;;;5094281;28;20388;-60
2021/12/23 11:41:51;;;;;;;43.50;23.38;;;2.40;99.70;;;;;;5075392;28;20032;-60
2021/12/23 11:44:17;;;;;;;46.00;23.63;;;2.40;99.90;;;;;;5093188;28;20607;-60
2021/12/23 11:46:49;;;;;;;41.85;22.77;;;2.40;99.70;;;;;;5093767;28;20032;-60
2021/12/23 11:49:16;;;;;;;44.08;22.58;;;2.50;99.70;;;;;;5092938;28;20568;-60
2021/12/23 11:54:38;;;;;;;43.35;24.20;;;2.60;99.50;;;;;;5073258;28;20025;-60
2021/12/23 11:57:10;;;;;;;42.05;23.38;;;2.60;99.40;;;;;;5073399;28;20545;-60
2021/12/23 11:59:40;;;;;;;42.80;23.60;;;2.60;99.40;;;;;;5091317;28;20490;-60
2021/12/23 12:02:29;;;;;;;46.70;24.08;;;2.70;99.40;;;;;;5074128;28;20020;-60
2021/12/23 12:05:00;;;;;;;43.50;22.87;;;2.70;99.20;;;;;;5089651;28;20365;-60
2021/12/23 12:07:26;;;;;;;40.88;21.63;;;2.80;99.30;;;;;;5086531;28;20035;-60
2021/12/23 12:09:55;;;;;;;43.45;23.55;;;2.90;99.20;;;;;;5092108;28;20016;-60
2021/12/23 12:12:56;;;;;;;43.67;23.17;;;3.00;99.10;;;;;;5091870;28;20016;-60
2021/12/23 12:16:03;;;;;;;40.08;21.50;;;3.00;98.80;;;;;;5089016;28;20069;-60
2021/12/23 12:18:44;;;;;;;40.50;22.67;;;3.10;98.80;;;;;;5089682;28;20039;-60
2021/12/23 12:21:25;;;;;;;42.95;23.38;;;3.20;98.70;;;;;;5089665;28;20044;-60
2021/12/23 12:24:11;;;;;;;43.75;22.40;;;3.30;98.60;;;;;;5084949;28;20017;-60
2021/12/23 12:26:52;;;;;;;39.88;21.65;;;3.40;98.60;;;;;;5090451;28;20505;-60
2021/12/23 12:29:20;;;;;;;37.03;22.05;;;3.40;98.40;;;;;;5091812;28;20376;-60
2021/12/23 12:31:47;;;;;;;41.85;23.80;;;3.40;98.30;;;;;;5088626;28;20051;-60
2021/12/23 12:34:13;;;;;;;43.60;25.23;;;3.40;98.30;;;;;;5091780;28;20020;-60
2021/12/23 12:36:49;;;;;;;41.45;23.27;;;3.40;98.30;;;;;;5109183;28;20486;-60
2021/12/23 12:39:24;;;;;;;44.90;23.13;;;3.50;98.30;;;;;;5091849;28;20372;-60
2021/12/23 12:42:02;;;;;;;40.65;23.52;;;3.50;98.30;;;;;;5086002;28;20024;-60
2021/12/23 12:44:45;;;;;;;43.97;22.33;;;3.50;98.30;;;;;;5091110;28;20421;-60
2021/12/23 12:47:26;;;;;;;39.30;21.13;;;3.60;98.30;;;;;;5090916;28;20041;-60
2021/12/23 12:50:13;;;;;;;37.40;20.70;;;3.60;98.30;;;;;;5088820;28;20086;-60
2021/12/23 12:52:43;;;;;;;43.08;22.52;;;3.70;98.30;;;;;;5084993;28;20095;-60
2021/12/23 12:55:13;;;;;;;38.40;20.90;;;3.70;98.30;;;;;;5088298;28;20036;-60
2021/12/23 12:57:47;;;;;;;43.27;22.40;;;3.80;98.20;;;;;;5090825;28;20020;-61
2021/12/23 13:01:09;;;;;;;;;;;;;;;;;;;;;
2021/12/23 13:03:51;;;;;;;35.10;20.83;;;3.80;98.10;;;;;;5064115;28;20036;-60
2021/12/23 13:06:54;;;;;;;39.17;21.48;;;3.80;98.30;;;;;;5085266;28;20016;-61
2021/12/23 13:09:27;;;;;;;40.58;22.92;;;3.90;98.40;;;;;;5087840;28;20090;-61
2021/12/23 13:11:58;;;;;;;42.75;23.20;;;3.90;98.60;;;;;;5086683;28;20089;-61
2021/12/23 13:15:16;;;;;;;40.97;21.77;;;4.00;98.60;;;;;;5091505;28;20024;-58
2021/12/23 13:17:46;;;;;;;37.53;19.95;;;4.20;98.50;;;;;;5086455;28;20150;-58
2021/12/23 13:20:40;;;;;;;;;;;;;;;;;;;;;
2021/12/23 13:23:20;;;;;;;37.25;20.45;;;4.60;98.30;;;;;;5089437;28;20757;-58
2021/12/23 13:25:50;;;;;;;38.47;20.77;;;4.70;97.90;;;;;;5090873;28;20115;-59
2021/12/23 13:28:22;;;;;;;;;;;4.70;97.70;;;;;;5086413;28;20035;-58
2021/12/23 13:30:48;;;;;;;35.78;19.08;;;4.70;97.50;;;;;;5089216;28;20363;-58
2021/12/23 13:33:13;;;;;;;34.63;20.00;;;4.80;97.50;;;;;;5088099;28;20112;-58
2021/12/23 13:35:50;;;;;;;33.40;18.88;;;4.80;97.40;;;;;;5089129;28;20550;-61
2021/12/23 13:38:44;;;;;;;;;;;;;;;;;;;;;
2021/12/23 13:41:51;;;;;;;;;;;;;;;;;;;;;
2021/12/23 13:44:22;;;;;;;32.58;20.13;;;5.00;97.10;;;;;;5087065;28;20013;-61
2021/12/23 13:46:59;;;;;;;36.85;20.33;;;5.00;97.20;;;;;;5087353;28;20027;-60
2021/12/23 13:50:04;;;;;;;31.92;18.83;;;5.00;97.00;;;;;;5095098;28;20032;-61
2021/12/23 13:52:34;;;;;;;35.45;19.58;;;5.00;97.00;;;;;;5093784;28;20082;-60
2021/12/23 13:55:03;;;;;;;;;;;4.90;97.00;;;;;;5092413;28;20023;-61
2021/12/23 13:57:46;;;;;;;35.40;20.65;;;4.80;97.10;;;;;;5099738;28;20656;-61
2021/12/23 14:00:19;;;;;;;30.55;17.90;;;4.80;97.20;;;;;;5087783;28;20019;-61